Time;durP1;ratioP1;P1;durP2;ratioP2;P2;SDS_P1;SDS_P2;PMS_P1;PMS_P2;Temp;Humidity;BMP_temperature;BMP_pressure;BME280_temperature;BME280_humidity;BME280_pressure;Samples;Min_cycle;Max_cycle;Signal;HPM_P1;HPM_P2
2023/12/09 00:01:10;;;;;;;8.50;3.23;;;;;;;;;;5049082;28;20198;-66
2023/12/09 00:03:37;;;;;;;6.10;3.20;;;;;;;;;;5044566;28;20214;-67
2023/12/09 00:06:04;;;;;;;4.60;2.77;;;;;;;;;;5044055;28;20209;-67
2023/12/09 00:08:31;;;;;;;4.77;2.40;;;;;;;;;;5047657;28;20226;-67
2023/12/09 00:11:00;;;;;;;8.43;2.80;;;;;;;;;;5052702;28;20211;-67
2023/12/09 00:13:27;;;;;;;6.00;2.93;;;;;;;;;;5050785;28;20258;-67
2023/12/09 00:15:54;;;;;;;7.83;3.30;;;;;;;;;;5052660;28;20202;-66
2023/12/09 00:18:21;;;;;;;9.37;2.97;;;;;;;;;;5051547;28;20201;-67
2023/12/09 00:20:48;;;;;;;6.33;2.50;;;;;;;;;;5052595;28;20210;-67
2023/12/09 00:23:15;;;;;;;4.87;2.67;;;;;;;;;;5049856;28;20199;-67
2023/12/09 00:25:43;;;;;;;10.33;2.90;;;;;;;;;;5058511;28;20207;-67
2023/12/09 00:28:11;;;;;;;6.30;2.47;;;;;;;;;;5052195;28;20317;-67
2023/12/09 00:30:38;;;;;;;7.10;2.50;;;;;;;;;;5049994;28;20213;-66
2023/12/09 00:33:05;;;;;;;5.17;2.53;;;;;;;;;;5054953;28;20218;-67
2023/12/09 00:35:33;;;;;;;5.97;2.47;;;;;;;;;;5051067;28;20737;-66
2023/12/09 00:38:00;;;;;;;13.80;2.93;;;;;;;;;;5046001;28;20203;-67
2023/12/09 00:40:27;;;;;;;7.93;2.50;;;;;;;;;;5045414;28;20210;-66
2023/12/09 00:42:54;;;;;;;7.63;2.13;;;;;;;;;;5055177;28;20207;-67
2023/12/09 00:45:24;;;;;;;9.10;2.70;;;;;;;;;;5058040;28;20232;-67
2023/12/09 00:47:52;;;;;;;6.20;2.70;;;;;;;;;;5053028;28;20252;-67
2023/12/09 00:50:19;;;;;;;7.40;2.50;;;;;;;;;;5056845;28;20206;-67
2023/12/09 00:52:46;;;;;;;10.17;2.80;;;;;;;;;;5052841;28;20213;-68
2023/12/09 00:55:13;;;;;;;6.07;2.80;;;;;;;;;;5051765;28;20202;-67
2023/12/09 00:57:40;;;;;;;9.10;2.87;;;;;;;;;;5060180;28;20238;-67
2023/12/09 01:00:08;;;;;;;7.57;2.47;;;;;;;;;;5054510;28;20236;-67
2023/12/09 01:02:38;;;;;;;5.47;2.50;;;;;;;;;;5051314;28;20199;-67
2023/12/09 01:05:06;;;;;;;7.90;2.63;;;;;;;;;;5055888;28;20352;-66
2023/12/09 01:07:33;;;;;;;7.47;3.20;;;;;;;;;;5053862;28;20233;-66
2023/12/09 01:10:00;;;;;;;11.60;3.13;;;;;;;;;;5051720;28;20240;-66
2023/12/09 01:12:27;;;;;;;4.10;2.00;;;;;;;;;;5054515;28;20202;-67
2023/12/09 01:14:54;;;;;;;6.63;2.63;;;;;;;;;;5055837;28;20233;-67
2023/12/09 01:17:21;;;;;;;8.43;2.50;;;;;;;;;;5052947;28;20198;-62
2023/12/09 01:19:50;;;;;;;7.83;2.43;;;;;;;;;;5056444;28;20203;-64
2023/12/09 01:22:17;;;;;;;4.73;2.77;;;;;;;;;;5053657;28;20211;-62
2023/12/09 01:24:44;;;;;;;8.27;2.60;;;;;;;;;;5055704;28;20214;-62
2023/12/09 01:27:11;;;;;;;11.00;2.90;;;;;;;;;;5053435;28;20208;-64
2023/12/09 01:29:39;;;;;;;5.43;2.10;;;;;;;;;;5054125;28;20206;-63
2023/12/09 01:32:06;;;;;;;7.37;2.23;;;;;;;;;;5053176;28;20203;-61
2023/12/09 01:34:34;;;;;;;10.77;2.80;;;;;;;;;;5054679;28;20203;-62
2023/12/09 01:37:02;;;;;;;5.53;2.20;;;;;;;;;;5051221;28;20207;-63
2023/12/09 01:39:29;;;;;;;8.23;2.23;;;;;;;;;;5054862;28;20214;-63
2023/12/09 01:41:57;;;;;;;5.57;2.10;;;;;;;;;;5051654;28;20212;-63
2023/12/09 01:44:24;;;;;;;4.60;2.03;;;;;;;;;;5053957;28;20305;-64
2023/12/09 01:46:51;;;;;;;4.60;2.17;;;;;;;;;;5054591;28;20210;-63
2023/12/09 01:49:18;;;;;;;6.83;2.00;;;;;;;;;;5053752;28;20229;-63
2023/12/09 01:51:45;;;;;;;4.67;2.50;;;;;;;;;;5053148;28;20206;-62
2023/12/09 01:54:14;;;;;;;4.93;2.10;;;;;;;;;;5052746;28;20205;-62
2023/12/09 01:56:41;;;;;;;3.77;2.13;;;;;;;;;;5061331;28;20492;-63
2023/12/09 01:59:08;;;;;;;6.50;2.57;;;;;;;;;;5054020;28;20206;-63
2023/12/09 02:01:37;;;;;;;6.20;2.77;;;;;;;;;;5052070;28;20208;-62
2023/12/09 02:04:04;;;;;;;4.67;2.27;;;;;;;;;;5053196;28;20214;-63
2023/12/09 02:06:31;;;;;;;2.90;2.07;;;;;;;;;;5056455;28;20200;-62
2023/12/09 02:08:59;;;;;;;5.13;2.33;;;;;;;;;;5053094;28;20218;-64
2023/12/09 02:11:31;;;;;;;4.63;2.07;;;;;;;;;;5056575;28;20225;-62
2023/12/09 02:14:00;;;;;;;9.67;3.03;;;;;;;;;;5054861;28;20230;-63
2023/12/09 02:16:30;;;;;;;4.90;2.27;;;;;;;;;;5056204;28;20211;-63
2023/12/09 02:18:57;;;;;;;7.87;2.50;;;;;;;;;;5056048;28;20250;-63
2023/12/09 02:21:25;;;;;;;7.93;2.67;;;;;;;;;;5053617;28;20206;-62
2023/12/09 02:23:53;;;;;;;5.03;2.33;;;;;;;;;;5056160;28;20207;-63
2023/12/09 02:26:24;;;;;;;3.80;2.10;;;;;;;;;;5052812;28;20198;-62
2023/12/09 02:28:52;;;;;;;5.90;2.23;;;;;;;;;;5050041;28;20218;-67
2023/12/09 02:31:23;;;;;;;8.73;3.07;;;;;;;;;;5053502;28;20220;-66
2023/12/09 02:33:50;;;;;;;4.47;2.70;;;;;;;;;;5053811;28;20349;-67
2023/12/09 02:36:18;;;;;;;5.60;2.40;;;;;;;;;;5051400;28;20731;-67
2023/12/09 02:38:46;;;;;;;6.13;2.53;;;;;;;;;;5053973;28;20214;-67
2023/12/09 02:41:15;;;;;;;4.77;2.43;;;;;;;;;;5053764;28;20210;-67
2023/12/09 02:43:45;;;;;;;4.57;2.70;;;;;;;;;;5052933;28;21401;-67
2023/12/09 02:46:13;;;;;;;7.10;2.60;;;;;;;;;;5054211;28;20209;-67
2023/12/09 02:48:40;;;;;;;9.50;2.43;;;;;;;;;;5055054;28;20230;-67
2023/12/09 02:51:08;;;;;;;10.67;2.60;;;;;;;;;;5052901;28;20203;-67
2023/12/09 02:53:35;;;;;;;9.17;2.93;;;;;;;;;;5054136;28;20216;-67
2023/12/09 02:56:02;;;;;;;9.03;2.80;;;;;;;;;;5060608;28;20202;-67
2023/12/09 02:58:30;;;;;;;7.87;2.80;;;;;;;;;;5053147;28;20203;-67
2023/12/09 03:00:57;;;;;;;13.80;3.33;;;;;;;;;;5057329;28;20207;-67
2023/12/09 03:03:24;;;;;;;8.50;3.17;;;;;;;;;;5054612;28;20218;-67
2023/12/09 03:05:52;;;;;;;10.20;3.37;;;;;;;;;;5052511;28;20203;-68
2023/12/09 03:08:19;;;;;;;11.23;3.30;;;;;;;;;;5052069;28;20231;-68
2023/12/09 03:10:46;;;;;;;7.07;3.00;;;;;;;;;;5052784;28;20207;-68
2023/12/09 03:13:13;;;;;;;11.33;3.10;;;;;;;;;;5053914;28;20238;-69
2023/12/09 03:15:41;;;;;;;10.83;3.60;;;;;;;;;;5053199;28;20207;-67
2023/12/09 03:18:09;;;;;;;12.10;3.43;;;;;;;;;;5053672;28;20225;-67
2023/12/09 03:20:36;;;;;;;10.03;3.23;;;;;;;;;;5053130;28;20211;-67
2023/12/09 03:23:03;;;;;;;10.17;3.40;;;;;;;;;;5054629;28;20210;-68
2023/12/09 03:25:32;;;;;;;10.27;3.50;;;;;;;;;;5053582;28;20276;-68
2023/12/09 03:27:59;;;;;;;12.20;4.80;;;;;;;;;;5052669;28;20282;-68
2023/12/09 03:30:26;;;;;;;9.37;3.33;;;;;;;;;;5053154;28;20206;-66
2023/12/09 03:32:54;;;;;;;6.07;3.03;;;;;;;;;;5052800;28;20207;-67
2023/12/09 03:35:21;;;;;;;14.23;3.73;;;;;;;;;;5054794;28;20207;-69
2023/12/09 03:37:48;;;;;;;9.63;3.47;;;;;;;;;;5055387;28;20203;-67
2023/12/09 03:40:16;;;;;;;14.13;3.73;;;;;;;;;;5054127;28;20561;-67
2023/12/09 03:42:43;;;;;;;13.20;4.07;;;;;;;;;;5053082;28;20541;-68
2023/12/09 03:45:10;;;;;;;7.00;3.50;;;;;;;;;;5052390;28;20198;-68
2023/12/09 03:47:37;;;;;;;9.50;3.87;;;;;;;;;;5050337;28;20259;-68
2023/12/09 03:50:06;;;;;;;10.57;3.93;;;;;;;;;;5051998;28;20230;-67
2023/12/09 03:52:33;;;;;;;11.47;4.23;;;;;;;;;;5053651;28;20201;-67
2023/12/09 03:55:00;;;;;;;13.53;4.67;;;;;;;;;;5050050;28;20207;-67
2023/12/09 03:57:27;;;;;;;9.47;3.77;;;;;;;;;;5050466;28;20207;-67
2023/12/09 03:59:55;;;;;;;10.37;4.23;;;;;;;;;;5056591;28;20206;-67
2023/12/09 04:02:22;;;;;;;7.43;3.70;;;;;;;;;;5051844;28;20208;-68
2023/12/09 04:04:49;;;;;;;13.60;4.47;;;;;;;;;;5052524;28;20227;-68
2023/12/09 04:07:17;;;;;;;15.37;4.63;;;;;;;;;;5050700;28;20210;-67
2023/12/09 04:09:44;;;;;;;12.50;4.20;;;;;;;;;;5052579;28;20211;-67
2023/12/09 04:12:11;;;;;;;8.00;4.57;;;;;;;;;;5050904;28;20220;-67
2023/12/09 04:14:39;;;;;;;13.87;5.17;;;;;;;;;;5053560;28;20242;-67
2023/12/09 04:17:06;;;;;;;14.07;4.60;;;;;;;;;;5052165;28;20222;-67
2023/12/09 04:19:33;;;;;;;11.10;4.73;;;;;;;;;;5052367;28;20206;-67
2023/12/09 04:22:00;;;;;;;18.47;5.37;;;;;;;;;;5052050;28;20199;-67
2023/12/09 04:24:29;;;;;;;14.57;4.70;;;;;;;;;;5052794;28;20207;-69
2023/12/09 04:26:56;;;;;;;11.03;5.17;;;;;;;;;;5053283;28;20217;-67
2023/12/09 04:29:23;;;;;;;11.80;5.20;;;;;;;;;;5055248;28;20211;-68
2023/12/09 04:31:50;;;;;;;14.40;4.53;;;;;;;;;;5052442;28;20199;-67
2023/12/09 04:34:17;;;;;;;7.40;4.00;;;;;;;;;;5051575;28;20213;-67
2023/12/09 04:36:44;;;;;;;12.33;4.73;;;;;;;;;;5053852;28;20207;-67
2023/12/09 04:39:12;;;;;;;16.00;4.37;;;;;;;;;;5056957;28;20210;-68
2023/12/09 04:41:40;;;;;;;14.90;5.20;;;;;;;;;;5055550;28;20207;-66
2023/12/09 04:44:07;;;;;;;13.80;4.13;;;;;;;;;;5047527;28;20321;-67
2023/12/09 04:46:34;;;;;;;9.73;3.90;;;;;;;;;;5046469;28;20218;-66
2023/12/09 04:49:02;;;;;;;9.67;4.17;;;;;;;;;;5049554;28;20213;-62
2023/12/09 04:51:29;;;;;;;8.50;3.63;;;;;;;;;;5054515;28;20226;-62
2023/12/09 04:53:56;;;;;;;10.30;3.80;;;;;;;;;;5053603;28;20201;-64
2023/12/09 04:56:24;;;;;;;12.07;3.87;;;;;;;;;;5055936;28;20203;-62
2023/12/09 04:58:52;;;;;;;14.23;3.93;;;;;;;;;;5060290;28;20290;-62
2023/12/09 05:01:19;;;;;;;8.10;3.00;;;;;;;;;;5054329;28;20199;-62
2023/12/09 05:03:47;;;;;;;10.30;4.00;;;;;;;;;;5056789;28;20217;-62
2023/12/09 05:06:14;;;;;;;11.87;3.30;;;;;;;;;;5057970;28;20207;-63
2023/12/09 05:08:42;;;;;;;7.30;2.60;;;;;;;;;;5056974;28;20219;-63
2023/12/09 05:11:09;;;;;;;7.87;3.57;;;;;;;;;;5058227;28;20204;-63
2023/12/09 05:13:36;;;;;;;12.57;3.33;;;;;;;;;;5057337;28;20258;-62
2023/12/09 05:16:05;;;;;;;10.80;3.60;;;;;;;;;;5059353;28;20206;-63
2023/12/09 05:18:33;;;;;;;12.30;3.50;;;;;;;;;;5059004;28;20207;-62
2023/12/09 05:21:01;;;;;;;12.83;3.70;;;;;;;;;;5058315;28;20203;-62
2023/12/09 05:23:28;;;;;;;12.07;3.57;;;;;;;;;;5057554;28;20199;-62
2023/12/09 05:25:55;;;;;;;14.00;3.20;;;;;;;;;;5055851;28;20225;-62
2023/12/09 05:28:22;;;;;;;15.63;4.20;;;;;;;;;;5056481;28;20195;-62
2023/12/09 05:30:49;;;;;;;10.73;3.90;;;;;;;;;;5057575;28;20211;-62
2023/12/09 05:33:18;;;;;;;9.13;3.60;;;;;;;;;;5056970;28;20213;-61
2023/12/09 05:35:45;;;;;;;14.23;3.80;;;;;;;;;;5055090;28;20271;-62
2023/12/09 05:38:12;;;;;;;14.50;3.40;;;;;;;;;;5057112;28;20203;-62
2023/12/09 05:40:39;;;;;;;10.27;3.63;;;;;;;;;;5057955;28;20214;-63
2023/12/09 05:43:07;;;;;;;11.27;3.83;;;;;;;;;;5054445;28;20206;-62
2023/12/09 05:45:34;;;;;;;11.37;3.20;;;;;;;;;;5057555;28;20564;-63
2023/12/09 05:48:01;;;;;;;9.17;3.60;;;;;;;;;;5056934;28;20203;-62
2023/12/09 05:50:29;;;;;;;13.50;3.60;;;;;;;;;;5058572;28;20227;-62
2023/12/09 05:52:56;;;;;;;14.53;4.03;;;;;;;;;;5059696;28;20209;-61
2023/12/09 05:55:24;;;;;;;14.93;4.03;;;;;;;;;;5058296;28;20211;-62
2023/12/09 05:57:51;;;;;;;10.83;3.77;;;;;;;;;;5057834;28;20210;-62
2023/12/09 06:00:18;;;;;;;12.17;3.33;;;;;;;;;;5056568;28;20653;-62
2023/12/09 06:02:45;;;;;;;10.03;3.03;;;;;;;;;;5056085;28;20225;-62
2023/12/09 06:05:12;;;;;;;9.13;3.60;;;;;;;;;;5056236;28;20203;-63
2023/12/09 06:07:41;;;;;;;15.23;3.53;;;;;;;;;;5053715;28;20209;-62
2023/12/09 06:10:08;;;;;;;9.57;2.87;;;;;;;;;;5055285;28;20211;-63
2023/12/09 06:12:35;;;;;;;12.50;3.90;;;;;;;;;;5052299;28;20211;-62
2023/12/09 06:15:02;;;;;;;18.50;4.57;;;;;;;;;;5055412;28;20241;-63
2023/12/09 06:17:29;;;;;;;14.87;5.10;;;;;;;;;;5052637;28;20202;-62
2023/12/09 06:19:56;;;;;;;14.00;3.67;;;;;;;;;;5055094;28;20521;-63
2023/12/09 06:22:24;;;;;;;15.00;4.97;;;;;;;;;;5053510;28;20212;-63
2023/12/09 06:24:52;;;;;;;17.37;5.27;;;;;;;;;;5054799;28;20207;-62
2023/12/09 06:27:19;;;;;;;17.60;5.20;;;;;;;;;;5051129;28;20207;-61
2023/12/09 06:29:46;;;;;;;11.30;3.97;;;;;;;;;;5051580;28;20219;-61
2023/12/09 06:32:14;;;;;;;12.00;3.40;;;;;;;;;;5052223;28;20199;-61
2023/12/09 06:34:41;;;;;;;16.50;3.40;;;;;;;;;;5055558;28;20218;-63
2023/12/09 06:37:08;;;;;;;12.77;3.63;;;;;;;;;;5053070;28;20205;-62
2023/12/09 06:39:35;;;;;;;12.73;3.00;;;;;;;;;;5054758;28;20449;-62
2023/12/09 06:42:05;;;;;;;11.73;3.80;;;;;;;;;;5050517;28;20200;-62
2023/12/09 06:44:32;;;;;;;12.93;3.80;;;;;;;;;;5055012;28;20208;-63
2023/12/09 06:46:59;;;;;;;15.20;4.00;;;;;;;;;;5054217;28;20232;-61
2023/12/09 06:49:26;;;;;;;15.30;3.30;;;;;;;;;;5055804;28;20218;-62
2023/12/09 06:51:54;;;;;;;12.37;3.43;;;;;;;;;;5055461;28;20210;-63
2023/12/09 06:54:21;;;;;;;13.37;3.90;;;;;;;;;;5058259;28;20218;-62
2023/12/09 06:56:48;;;;;;;12.50;3.40;;;;;;;;;;5055515;28;20202;-64
2023/12/09 06:59:17;;;;;;;12.20;3.37;;;;;;;;;;5057955;28;20457;-62
2023/12/09 07:01:44;;;;;;;11.83;3.73;;;;;;;;;;5056890;28;20211;-63
2023/12/09 07:04:12;;;;;;;15.03;3.50;;;;;;;;;;5053569;28;20209;-63
2023/12/09 07:06:39;;;;;;;9.63;3.10;;;;;;;;;;5056494;28;20320;-62
2023/12/09 07:09:08;;;;;;;12.13;3.07;;;;;;;;;;5054851;28;20222;-63
2023/12/09 07:11:35;;;;;;;13.73;3.40;;;;;;;;;;5053940;28;20403;-62
2023/12/09 07:14:02;;;;;;;13.87;3.60;;;;;;;;;;5052652;28;20245;-62
2023/12/09 07:16:31;;;;;;;11.90;3.87;;;;;;;;;;5052611;28;20252;-63
2023/12/09 07:18:59;;;;;;;13.53;3.63;;;;;;;;;;5052799;28;20203;-63
2023/12/09 07:21:27;;;;;;;9.10;3.00;;;;;;;;;;5052271;28;20222;-62
2023/12/09 07:23:55;;;;;;;16.63;4.23;;;;;;;;;;5051701;28;20284;-63
2023/12/09 07:26:22;;;;;;;12.17;3.60;;;;;;;;;;5056186;28;20255;-63
2023/12/09 07:28:49;;;;;;;16.17;3.90;;;;;;;;;;5052468;28;20323;-63
2023/12/09 07:31:17;;;;;;;15.40;3.57;;;;;;;;;;5050481;28;20231;-62
2023/12/09 07:33:45;;;;;;;17.30;3.97;;;;;;;;;;5052443;28;20226;-61
2023/12/09 07:36:12;;;;;;;12.40;3.00;;;;;;;;;;5055018;28;20206;-62
2023/12/09 07:38:39;;;;;;;11.83;3.10;;;;;;;;;;5055285;28;20202;-62
2023/12/09 07:41:07;;;;;;;15.87;3.87;;;;;;;;;;5057172;28;20207;-61
2023/12/09 07:43:34;;;;;;;13.20;3.47;;;;;;;;;;5053053;28;20203;-61
2023/12/09 07:46:01;;;;;;;12.93;3.40;;;;;;;;;;5050247;28;20217;-64
2023/12/09 07:48:28;;;;;;;11.27;3.17;;;;;;;;;;5052435;28;20207;-62
2023/12/09 07:50:57;;;;;;;11.83;3.53;;;;;;;;;;5051051;28;20227;-63
2023/12/09 07:53:24;;;;;;;17.80;3.70;;;;;;;;;;5050533;28;20221;-62
2023/12/09 07:55:51;;;;;;;8.60;3.13;;;;;;;;;;5055298;28;20302;-63
2023/12/09 07:58:18;;;;;;;17.00;3.70;;;;;;;;;;5052896;28;20244;-62
2023/12/09 08:00:45;;;;;;;12.77;3.30;;;;;;;;;;5054043;28;20211;-61
2023/12/09 08:03:12;;;;;;;10.30;3.20;;;;;;;;;;5053611;28;20214;-62
2023/12/09 08:05:40;;;;;;;14.17;3.67;;;;;;;;;;5051859;28;20226;-62
2023/12/09 08:08:10;;;;;;;11.77;3.33;;;;;;;;;;5051107;28;21631;-64
2023/12/09 08:10:37;;;;;;;14.63;3.77;;;;;;;;;;5050157;28;20249;-62
2023/12/09 08:13:05;;;;;;;9.40;3.37;;;;;;;;;;5050154;28;20206;-63
2023/12/09 08:15:33;;;;;;;14.07;3.87;;;;;;;;;;5051735;28;20252;-62
2023/12/09 08:18:00;;;;;;;17.83;3.93;;;;;;;;;;5051623;28;20228;-66
2023/12/09 08:20:27;;;;;;;13.63;3.40;;;;;;;;;;5050026;28;20202;-66
2023/12/09 08:22:54;;;;;;;14.33;3.43;;;;;;;;;;5048604;28;20203;-66
2023/12/09 08:25:22;;;;;;;14.20;3.53;;;;;;;;;;5050181;28;20204;-66
2023/12/09 08:27:49;;;;;;;15.40;3.53;;;;;;;;;;5047914;28;20545;-67
2023/12/09 08:30:17;;;;;;;13.13;2.83;;;;;;;;;;5048918;28;20229;-68
2023/12/09 08:32:44;;;;;;;14.93;3.20;;;;;;;;;;5047593;28;20200;-68
2023/12/09 08:35:11;;;;;;;10.17;3.23;;;;;;;;;;5050417;28;20209;-68
2023/12/09 08:37:38;;;;;;;12.47;3.27;;;;;;;;;;5053032;28;20205;-68
2023/12/09 08:40:10;;;;;;;14.77;2.93;;;;;;;;;;5053372;28;20205;-69
2023/12/09 08:42:39;;;;;;;7.83;3.03;;;;;;;;;;5054714;28;20264;-69
2023/12/09 08:45:06;;;;;;;10.77;3.43;;;;;;;;;;5058136;28;20207;-67
2023/12/09 08:47:33;;;;;;;17.07;3.50;;;;;;;;;;5056574;28;20202;-67
2023/12/09 08:50:01;;;;;;;10.47;2.60;;;;;;;;;;5061737;28;20664;-67
2023/12/09 08:52:28;;;;;;;11.43;2.83;;;;;;;;;;5064177;28;20225;-68
2023/12/09 08:54:55;;;;;;;11.97;2.93;;;;;;;;;;5066481;28;20217;-68
2023/12/09 08:57:22;;;;;;;11.47;3.00;;;;;;;;;;5066362;28;20214;-69
2023/12/09 08:59:51;;;;;;;8.60;2.33;;;;;;;;;;5071017;28;20195;-68
2023/12/09 09:02:18;;;;;;;11.93;3.27;;;;;;;;;;5063990;28;20207;-69
2023/12/09 09:04:45;;;;;;;9.13;2.90;;;;;;;;;;5066164;28;20207;-68
2023/12/09 09:07:12;;;;;;;11.83;3.20;;;;;;;;;;5068957;28;20209;-68
2023/12/09 09:09:41;;;;;;;9.87;2.60;;;;;;;;;;5064420;28;20218;-67
2023/12/09 09:12:09;;;;;;;8.83;2.70;;;;;;;;;;5072490;28;20203;-67
2023/12/09 09:14:36;;;;;;;10.53;3.07;;;;;;;;;;5062902;28;20230;-67
2023/12/09 09:17:05;;;;;;;9.07;2.50;;;;;;;;;;5071726;28;20298;-67
2023/12/09 09:19:33;;;;;;;8.23;2.57;;;;;;;;;;5063495;28;20195;-68
2023/12/09 09:22:00;;;;;;;9.97;3.67;;;;;;;;;;5063118;28;20202;-68
2023/12/09 09:24:28;;;;;;;13.60;4.00;;;;;;;;;;5066402;28;20198;-67
2023/12/09 09:26:56;;;;;;;11.63;3.60;;;;;;;;;;5064347;28;20230;-67
2023/12/09 09:29:25;;;;;;;11.07;3.70;;;;;;;;;;5071362;28;20252;-68
2023/12/09 09:31:53;;;;;;;11.53;3.20;;;;;;;;;;5069472;28;20231;-68
2023/12/09 09:34:21;;;;;;;11.53;3.83;;;;;;;;;;5068634;28;20202;-67
2023/12/09 09:36:49;;;;;;;11.10;3.40;;;;;;;;;;5067058;28;20268;-67
2023/12/09 09:39:18;;;;;;;8.23;3.50;;;;;;;;;;5057148;28;20207;-67
2023/12/09 09:41:51;;;;;;;7.47;3.10;;;;;;;;;;5053828;28;20195;-67
2023/12/09 09:44:20;;;;;;;9.80;2.83;;;;;;;;;;5051620;28;20199;-67
2023/12/09 09:46:49;;;;;;;9.77;3.07;;;;;;;;;;5054439;28;20234;-67
2023/12/09 09:49:19;;;;;;;10.10;2.97;;;;;;;;;;5057191;28;20214;-67
2023/12/09 09:51:52;;;;;;;9.90;3.50;;;;;;;;;;5056702;28;20222;-66
2023/12/09 09:54:21;;;;;;;11.07;3.40;;;;;;;;;;5056998;28;20304;-67
2023/12/09 09:56:50;;;;;;;8.03;3.27;;;;;;;;;;5053243;28;20291;-66
2023/12/09 09:59:18;;;;;;;11.37;3.27;;;;;;;;;;5057277;28;20230;-66
2023/12/09 10:01:47;;;;;;;12.47;3.60;;;;;;;;;;5054092;28;20207;-67
2023/12/09 10:04:14;;;;;;;12.37;3.40;;;;;;;;;;5055713;28;20203;-67
2023/12/09 10:06:42;;;;;;;11.53;3.67;;;;;;;;;;5053498;28;20211;-66
2023/12/09 10:09:11;;;;;;;9.57;3.50;;;;;;;;;;5055247;28;20215;-67
2023/12/09 10:11:39;;;;;;;9.60;3.80;;;;;;;;;;5054294;28;20284;-68
2023/12/09 10:14:06;;;;;;;11.40;3.90;;;;;;;;;;5056044;28;20250;-66
2023/12/09 10:16:34;;;;;;;11.57;4.07;;;;;;;;;;5058419;28;20513;-67
2023/12/09 10:19:02;;;;;;;8.90;4.10;;;;;;;;;;5054191;28;20290;-67
2023/12/09 10:21:29;;;;;;;9.87;4.40;;;;;;;;;;5055904;28;20196;-67
2023/12/09 10:23:57;;;;;;;12.17;4.47;;;;;;;;;;5055728;28;20208;-67
2023/12/09 10:26:26;;;;;;;10.23;4.13;;;;;;;;;;5053552;28;20415;-67
2023/12/09 10:28:54;;;;;;;13.70;4.83;;;;;;;;;;5052069;28;20199;-70
2023/12/09 10:31:24;;;;;;;12.13;4.37;;;;;;;;;;5065737;28;20230;-68
2023/12/09 10:33:52;;;;;;;10.07;4.50;;;;;;;;;;5063319;28;20207;-67
2023/12/09 10:36:19;;;;;;;9.87;4.70;;;;;;;;;;5053366;28;20206;-67
2023/12/09 10:38:47;;;;;;;10.30;4.90;;;;;;;;;;5057783;28;20207;-63
2023/12/09 10:41:16;;;;;;;7.90;4.10;;;;;;;;;;5055365;28;20199;-62
2023/12/09 10:43:45;;;;;;;8.90;4.40;;;;;;;;;;5063777;28;20226;-63
2023/12/09 10:46:14;;;;;;;7.53;3.63;;;;;;;;;;5064501;28;20217;-63
2023/12/09 10:48:42;;;;;;;9.23;4.03;;;;;;;;;;5064255;28;20203;-62
2023/12/09 10:51:09;;;;;;;7.10;3.70;;;;;;;;;;5055379;28;20410;-63
2023/12/09 10:53:38;;;;;;;7.30;3.83;;;;;;;;;;5061460;28;20578;-62
2023/12/09 10:56:07;;;;;;;8.27;3.90;;;;;;;;;;5062160;28;20230;-62
2023/12/09 10:58:37;;;;;;;9.47;4.10;;;;;;;;;;5066550;28;20213;-62
2023/12/09 11:01:08;;;;;;;6.70;3.83;;;;;;;;;;5063228;28;20199;-64
2023/12/09 11:03:36;;;;;;;5.77;3.77;;;;;;;;;;5064866;28;20196;-63
2023/12/09 11:06:06;;;;;;;9.37;4.03;;;;;;;;;;5074533;28;20203;-62
2023/12/09 11:08:35;;;;;;;10.00;4.20;;;;;;;;;;5061432;28;20203;-62
2023/12/09 11:11:05;;;;;;;8.00;4.30;;;;;;;;;;5062187;28;20226;-61
2023/12/09 11:13:36;;;;;;;7.63;3.90;;;;;;;;;;5070739;28;20273;-62
2023/12/09 11:16:18;;;;;;;9.10;4.10;;;;;;;;;;5067807;28;20206;-61
2023/12/09 11:18:49;;;;;;;9.27;3.90;;;;;;;;;;5057036;28;20289;-62
2023/12/09 11:21:17;;;;;;;8.73;3.60;;;;;;;;;;5065624;28;20191;-62
2023/12/09 11:23:46;;;;;;;7.60;4.33;;;;;;;;;;5060885;28;20226;-62
2023/12/09 11:26:17;;;;;;;6.50;3.50;;;;;;;;;;5066880;28;20206;-62
2023/12/09 11:29:05;;;;;;;7.93;3.73;;;;;;;;;;5061752;28;20206;-62
2023/12/09 11:31:35;;;;;;;6.40;3.17;;;;;;;;;;5058603;28;20223;-63
2023/12/09 11:34:03;;;;;;;6.50;3.60;;;;;;;;;;5059660;28;20293;-64
2023/12/09 11:36:35;;;;;;;4.57;3.50;;;;;;;;;;5062317;28;20204;-63
2023/12/09 11:39:03;;;;;;;8.10;3.53;;;;;;;;;;5067329;28;20211;-61
2023/12/09 11:41:31;;;;;;;6.43;3.43;;;;;;;;;;5063370;28;20282;-62
2023/12/09 11:43:59;;;;;;;5.53;3.30;;;;;;;;;;5059856;28;20206;-62
2023/12/09 11:46:27;;;;;;;7.60;3.80;;;;;;;;;;5068765;28;20203;-62
2023/12/09 11:48:59;;;;;;;6.53;3.10;;;;;;;;;;5067202;28;20206;-67
2023/12/09 11:51:27;;;;;;;7.33;2.97;;;;;;;;;;5066448;28;20225;-66
2023/12/09 11:53:56;;;;;;;5.60;3.47;;;;;;;;;;5060252;28;20249;-66
2023/12/09 11:56:23;;;;;;;7.10;3.07;;;;;;;;;;5065467;28;20246;-67
2023/12/09 11:58:51;;;;;;;7.27;3.07;;;;;;;;;;5068245;28;20324;-66
2023/12/09 12:01:18;;;;;;;5.63;2.83;;;;;;;;;;5063408;28;20204;-67
2023/12/09 12:03:47;;;;;;;6.17;3.23;;;;;;;;;;5055902;28;20203;-66
2023/12/09 12:06:19;;;;;;;6.07;2.90;;;;;;;;;;5044645;28;20218;-66
2023/12/09 12:08:48;;;;;;;6.00;2.37;;;;;;;;;;5047509;28;20205;-68
2023/12/09 12:11:15;;;;;;;6.17;2.63;;;;;;;;;;5055794;28;20317;-67
2023/12/09 12:13:45;;;;;;;8.10;2.80;;;;;;;;;;5049611;28;20242;-66
2023/12/09 12:16:13;;;;;;;7.17;2.30;;;;;;;;;;5054252;28;20257;-68
2023/12/09 12:18:41;;;;;;;6.90;2.40;;;;;;;;;;5053487;28;20250;-66
2023/12/09 12:21:12;;;;;;;6.50;2.70;;;;;;;;;;5097352;27;20199;-68
2023/12/09 12:23:45;;;;;;;11.57;3.30;;;;;;;;;;5067826;28;20203;-68
2023/12/09 12:28:58;;;;;;;5.07;2.53;;;;;;;;;;5068284;28;20215;-68
2023/12/09 12:31:28;;;;;;;4.20;2.23;;;;;;;;;;5067306;28;20325;-67
2023/12/09 12:33:56;;;;;;;8.77;2.83;;;;;;;;;;5067553;28;20285;-67
2023/12/09 12:36:27;;;;;;;5.37;2.30;;;;;;;;;;5067493;28;20285;-67
2023/12/09 12:38:56;;;;;;;7.03;2.57;;;;;;;;;;5061996;28;20226;-67
2023/12/09 12:41:24;;;;;;;5.60;2.40;;;;;;;;;;5056772;28;20289;-66
2023/12/09 12:43:52;;;;;;;3.20;2.10;;;;;;;;;;5054788;28;20302;-66
2023/12/09 12:46:22;;;;;;;4.00;2.27;;;;;;;;;;5085829;27;20245;-67
2023/12/09 12:48:49;;;;;;;3.20;1.90;;;;;;;;;;5088132;27;20253;-69
2023/12/09 12:51:17;;;;;;;3.67;1.90;;;;;;;;;;5053304;28;20225;-66
2023/12/09 12:53:46;;;;;;;5.47;1.90;;;;;;;;;;5053859;28;20292;-67
2023/12/09 12:56:16;;;;;;;2.77;1.80;;;;;;;;;;5055084;28;20238;-66
2023/12/09 12:58:44;;;;;;;3.93;1.90;;;;;;;;;;5053331;28;20205;-66
2023/12/09 13:01:11;;;;;;;3.77;1.73;;;;;;;;;;5054000;28;20286;-66
2023/12/09 13:03:39;;;;;;;5.80;2.10;;;;;;;;;;5091009;27;20298;-66
2023/12/09 13:06:13;;;;;;;4.40;2.00;;;;;;;;;;5051485;28;20202;-66
2023/12/09 13:08:40;;;;;;;2.67;1.67;;;;;;;;;;5054307;28;20467;-65
2023/12/09 13:11:09;;;;;;;3.63;2.00;;;;;;;;;;5048383;28;20354;-66
2023/12/09 13:13:39;;;;;;;3.80;2.03;;;;;;;;;;5054769;28;20238;-67
2023/12/09 13:16:08;;;;;;;6.43;1.90;;;;;;;;;;5053076;28;20210;-67
2023/12/09 13:18:37;;;;;;;3.33;1.87;;;;;;;;;;5050647;28;20201;-65
2023/12/09 13:21:06;;;;;;;3.50;2.00;;;;;;;;;;5068524;28;20206;-66
2023/12/09 13:23:33;;;;;;;3.50;1.60;;;;;;;;;;5049903;28;20195;-67
2023/12/09 13:26:03;;;;;;;2.67;1.47;;;;;;;;;;5054065;28;20317;-67
2023/12/09 13:28:31;;;;;;;4.50;1.97;;;;;;;;;;5053236;28;20270;-67
2023/12/09 13:31:00;;;;;;;6.47;2.20;;;;;;;;;;5053838;28;20213;-67
2023/12/09 13:33:27;;;;;;;3.43;1.60;;;;;;;;;;5050760;28;20271;-67
2023/12/09 13:35:54;;;;;;;4.73;1.70;;;;;;;;;;5051052;28;20213;-67
2023/12/09 13:38:22;;;;;;;6.30;1.80;;;;;;;;;;5054900;28;20302;-67
2023/12/09 13:40:49;;;;;;;4.20;1.47;;;;;;;;;;5055594;28;20211;-67
2023/12/09 13:43:17;;;;;;;2.53;1.50;;;;;;;;;;5067361;28;20264;-67
2023/12/09 13:45:44;;;;;;;2.73;1.47;;;;;;;;;;5063661;28;20199;-68
2023/12/09 13:48:14;;;;;;;4.37;1.80;;;;;;;;;;5066054;28;20198;-68
2023/12/09 13:50:42;;;;;;;2.50;1.40;;;;;;;;;;5067210;28;20204;-67
2023/12/09 13:53:09;;;;;;;2.47;1.40;;;;;;;;;;5064612;28;20206;-67
2023/12/09 13:55:36;;;;;;;4.57;1.67;;;;;;;;;;5066425;28;20227;-67
2023/12/09 13:58:03;;;;;;;4.40;1.63;;;;;;;;;;5070475;28;20232;-67
2023/12/09 14:00:31;;;;;;;4.70;1.70;;;;;;;;;;5069102;28;20209;-67
2023/12/09 14:02:58;;;;;;;4.37;2.07;;;;;;;;;;5067153;28;20272;-67
2023/12/09 14:05:26;;;;;;;6.93;1.53;;;;;;;;;;5069955;28;20241;-67
2023/12/09 14:07:54;;;;;;;3.63;1.57;;;;;;;;;;5067653;28;20506;-68
2023/12/09 14:10:21;;;;;;;1.40;1.23;;;;;;;;;;5065845;28;20200;-67
2023/12/09 14:12:48;;;;;;;2.40;1.30;;;;;;;;;;5065924;28;20218;-66
2023/12/09 14:15:16;;;;;;;2.03;1.40;;;;;;;;;;5065272;28;20230;-67
2023/12/09 14:17:43;;;;;;;2.60;1.13;;;;;;;;;;5063664;28;20240;-67
2023/12/09 14:20:12;;;;;;;1.70;1.27;;;;;;;;;;5068934;28;21669;-67
2023/12/09 14:22:46;;;;;;;1.93;1.10;;;;;;;;;;5061668;28;20234;-67
2023/12/09 14:25:13;;;;;;;2.50;1.40;;;;;;;;;;5062192;28;20207;-65
2023/12/09 14:27:44;;;;;;;2.30;1.33;;;;;;;;;;5065296;28;20227;-68
2023/12/09 14:30:18;;;;;;;1.70;1.00;;;;;;;;;;5063949;28;20285;-66
2023/12/09 14:32:46;;;;;;;1.90;1.00;;;;;;;;;;5065936;28;20264;-68
2023/12/09 14:35:15;;;;;;;2.40;1.00;;;;;;;;;;5064971;28;20230;-67
2023/12/09 14:37:43;;;;;;;1.63;1.20;;;;;;;;;;5068943;28;20207;-68
2023/12/09 14:40:15;;;;;;;2.10;1.00;;;;;;;;;;5101682;27;20203;-67
2023/12/09 14:42:43;;;;;;;2.43;0.90;;;;;;;;;;5071182;28;20310;-67
2023/12/09 14:45:13;;;;;;;1.10;0.53;;;;;;;;;;5066824;28;20266;-68